createdAt,value
2019-04-26T00:01:11.865Z,2.40
2019-04-26T00:03:59.270Z,2.43
2019-04-26T00:06:48.116Z,2.40
2019-04-26T00:09:37.415Z,2.43
2019-04-26T00:12:26.654Z,2.37
2019-04-26T00:15:16.618Z,2.27
2019-04-26T00:18:05.171Z,2.13
2019-04-26T00:20:52.591Z,2.40
2019-04-26T00:23:40.096Z,2.50
2019-04-26T00:26:28.183Z,2.60
2019-04-26T00:29:16.830Z,2.50
2019-04-26T00:32:04.502Z,2.63
2019-04-26T00:34:52.014Z,2.90
2019-04-26T00:37:39.698Z,2.53
2019-04-26T00:40:27.465Z,3.03
2019-04-26T00:43:15.077Z,3.00
2019-04-26T00:46:03.718Z,2.53
2019-04-26T00:48:54.133Z,2.57
2019-04-26T00:51:42.069Z,3.10
2019-04-26T00:54:30.081Z,2.73
2019-04-26T00:57:18.347Z,2.93
2019-04-26T01:00:06.566Z,2.93
2019-04-26T01:02:55.954Z,2.50
2019-04-26T01:05:43.458Z,2.60
2019-04-26T01:08:30.860Z,2.77
2019-04-26T01:11:19.644Z,2.70
2019-04-26T01:14:07.462Z,2.70
2019-04-26T01:16:55.024Z,2.93
2019-04-26T01:19:45.415Z,3.00
2019-04-26T01:22:35.921Z,2.63
2019-04-26T01:25:29.326Z,2.60
2019-04-26T01:28:19.810Z,2.37
2019-04-26T01:31:08.198Z,2.57
2019-04-26T01:37:02.924Z,2.57
2019-04-26T01:39:55.603Z,2.70
2019-04-26T01:42:56.786Z,2.43
2019-04-26T01:45:48.811Z,2.80
2019-04-26T01:48:46.664Z,3.00
2019-04-26T01:51:40.660Z,2.80
2019-04-26T01:54:34.694Z,2.73
2019-04-26T01:57:25.239Z,2.50
2019-04-26T02:00:15.919Z,2.70
2019-04-26T02:03:07.858Z,2.60
2019-04-26T02:05:55.571Z,3.43
2019-04-26T02:08:43.032Z,2.60
2019-04-26T02:11:30.839Z,2.80
2019-04-26T02:14:18.536Z,2.77
2019-04-26T02:17:06.040Z,3.00
2019-04-26T02:19:54.537Z,2.97
2019-04-26T02:22:50.127Z,2.90
2019-04-26T02:25:37.714Z,3.23
2019-04-26T02:28:26.395Z,2.90
2019-04-26T02:31:14.281Z,2.47
2019-04-26T02:34:03.257Z,2.43
2019-04-26T02:36:58.377Z,2.87
2019-04-26T02:39:43.505Z,2.77
2019-04-26T02:42:38.094Z,2.60
2019-04-26T02:45:45.452Z,3.40
2019-04-26T02:48:40.707Z,2.67
2019-04-26T02:51:38.238Z,3.10
2019-04-26T02:54:47.141Z,3.00
2019-04-26T02:57:38.907Z,2.60
2019-04-26T03:00:26.419Z,2.90
2019-04-26T03:03:14.348Z,2.50
2019-04-26T03:06:01.878Z,2.77
2019-04-26T03:08:50.548Z,2.53
2019-04-26T03:11:44.225Z,2.67
2019-04-26T03:14:41.862Z,2.80
2019-04-26T03:17:38.165Z,2.70
2019-04-26T03:20:40.049Z,2.67
2019-04-26T03:23:55.593Z,2.37
2019-04-26T03:26:44.165Z,2.60
2019-04-26T03:29:40.897Z,2.70
2019-04-26T03:32:50.269Z,2.60
2019-04-26T03:35:56.310Z,2.60
2019-04-26T03:38:59.517Z,2.20
2019-04-26T03:42:03.474Z,2.17
2019-04-26T03:45:02.927Z,2.30
2019-04-26T03:48:02.545Z,2.07
2019-04-26T03:51:10.128Z,2.20
2019-04-26T03:54:15.513Z,2.30
2019-04-26T03:57:31.069Z,2.30
2019-04-26T04:00:27.894Z,2.13
2019-04-26T04:03:28.557Z,2.20
2019-04-26T04:06:20.615Z,2.40
2019-04-26T04:09:09.580Z,2.13
2019-04-26T04:12:12.472Z,2.30
2019-04-26T04:15:09.694Z,2.30
2019-04-26T04:18:01.005Z,2.40
2019-04-26T04:21:08.263Z,2.17
2019-04-26T04:24:04.700Z,2.10
2019-04-26T04:27:12.618Z,2.10
2019-04-26T04:30:12.355Z,2.57
2019-04-26T04:33:30.249Z,2.23
2019-04-26T04:36:21.144Z,2.50
2019-04-26T04:39:13.221Z,2.20
2019-04-26T04:42:23.702Z,2.37
2019-04-26T04:45:42.465Z,2.17
2019-04-26T04:48:51.167Z,2.10
2019-04-26T04:52:00.217Z,2.40
2019-04-26T04:55:06.643Z,1.97
2019-04-26T04:58:09.783Z,2.23
2019-04-26T05:01:34.933Z,2.10
2019-04-26T05:04:28.203Z,2.10
2019-04-26T05:07:51.485Z,2.10
2019-04-26T05:10:48.525Z,2.00
2019-04-26T05:13:41.872Z,2.23
2019-04-26T05:16:45.547Z,2.17
2019-04-26T05:20:08.991Z,2.23
2019-04-26T05:23:08.463Z,2.33
2019-04-26T05:26:24.608Z,2.40
2019-04-26T05:29:36.280Z,2.27
2019-04-26T05:32:50.494Z,2.33
2019-04-26T05:35:58.372Z,2.43
2019-04-26T05:38:49.436Z,2.87
2019-04-26T05:42:08.871Z,2.50
2019-04-26T05:45:17.385Z,2.60
2019-04-26T05:48:47.805Z,2.40
2019-04-26T05:52:05.352Z,2.50
2019-04-26T05:55:18.495Z,2.50
2019-04-26T05:58:29.706Z,2.60
2019-04-26T06:01:42.792Z,2.23
2019-04-26T06:04:49.453Z,2.30
2019-04-26T06:07:56.383Z,2.03
2019-04-26T06:10:47.018Z,2.43
2019-04-26T06:14:06.504Z,2.10
2019-04-26T06:17:25.341Z,2.30
2019-04-26T06:20:24.537Z,2.13
2019-04-26T06:23:36.496Z,2.10
2019-04-26T06:27:13.791Z,2.40
2019-04-26T06:30:11.784Z,2.20
2019-04-26T06:33:15.174Z,2.03
2019-04-26T06:36:07.502Z,2.23
2019-04-26T06:39:11.612Z,2.13
2019-04-26T06:42:17.002Z,2.00
2019-04-26T06:45:09.834Z,1.90
2019-04-26T06:48:17.044Z,1.90
2019-04-26T06:51:07.785Z,2.07
2019-04-26T06:54:11.533Z,1.90
2019-04-26T06:57:36.603Z,2.07
2019-04-26T07:00:29.270Z,2.00
2019-04-26T07:03:22.981Z,1.80
2019-04-26T07:06:13.861Z,2.27
2019-04-26T07:09:08.261Z,2.23
2019-04-26T07:12:21.523Z,2.27
2019-04-26T07:15:28.368Z,1.80
2019-04-26T07:18:28.076Z,2.33
2019-04-26T07:21:29.676Z,2.27
2019-04-26T07:24:39.809Z,2.20
2019-04-26T07:27:33.386Z,2.20
2019-04-26T07:30:26.825Z,2.10
2019-04-26T07:33:27.081Z,2.40
2019-04-26T07:36:17.538Z,2.27
2019-04-26T07:39:19.419Z,2.17
2019-04-26T07:42:33.536Z,2.07
2019-04-26T07:45:37.281Z,2.00
2019-04-26T07:48:47.131Z,2.07
2019-04-26T07:52:03.376Z,2.03
2019-04-26T07:55:28.599Z,1.60
2019-04-26T07:58:48.791Z,1.90
2019-04-26T08:01:50.634Z,1.63
2019-04-26T08:04:41.234Z,1.70
2019-04-26T08:07:33.863Z,1.57
2019-04-26T08:10:25.074Z,1.73
2019-04-26T08:13:17.553Z,1.60
2019-04-26T08:16:25.985Z,1.80
2019-04-26T08:19:16.572Z,1.87
2019-04-26T08:22:17.954Z,1.70
2019-04-26T08:24:58.792Z,1.50
2019-04-26T08:27:48.664Z,1.60
2019-04-26T08:30:40.588Z,1.43
2019-04-26T08:33:33.596Z,1.50
2019-04-26T08:36:27.159Z,1.57
2019-04-26T08:39:24.592Z,1.60
2019-04-26T08:42:18.135Z,1.60
2019-04-26T08:45:10.119Z,1.80
2019-04-26T08:48:10.667Z,1.60
2019-04-26T08:51:02.541Z,1.53
2019-04-26T08:53:52.345Z,1.60
2019-04-26T08:56:42.934Z,1.37
2019-04-26T08:59:33.850Z,1.33
2019-04-26T09:02:37.672Z,1.60
2019-04-26T09:05:32.941Z,1.23
2019-04-26T09:08:23.875Z,1.70
2019-04-26T09:11:25.873Z,1.63
2019-04-26T09:14:09.631Z,1.40
2019-04-26T09:16:57.065Z,1.40
2019-04-26T09:19:44.656Z,1.50
2019-04-26T09:22:33.827Z,1.43
2019-04-26T09:25:34.520Z,1.20
2019-04-26T09:28:31.404Z,1.40
2019-04-26T09:31:21.155Z,1.47
2019-04-26T09:34:16.397Z,1.57
2019-04-26T09:37:03.794Z,1.47
2019-04-26T09:39:51.474Z,1.70
2019-04-26T09:42:46.570Z,1.63
2019-04-26T09:45:41.748Z,1.57
2019-04-26T09:48:31.348Z,1.60
2019-04-26T09:51:19.634Z,1.70
2019-04-26T09:54:07.288Z,1.90
2019-04-26T09:56:55.293Z,1.47
2019-04-26T09:59:42.718Z,1.50
2019-04-26T10:02:33.914Z,1.90
2019-04-26T10:05:22.190Z,1.50
2019-04-26T10:08:12.974Z,1.63
2019-04-26T10:10:59.310Z,1.50
2019-04-26T10:13:48.416Z,1.50
2019-04-26T10:16:42.406Z,1.50
2019-04-26T10:19:47.272Z,1.60
2019-04-26T10:22:34.825Z,1.50
2019-04-26T10:25:22.554Z,1.50
2019-04-26T10:28:11.775Z,1.37
2019-04-26T10:30:59.365Z,1.10
2019-04-26T10:33:46.813Z,1.33
2019-04-26T10:36:34.498Z,1.40
2019-04-26T10:39:23.593Z,1.40
2019-04-26T10:42:11.204Z,1.40
2019-04-26T10:44:58.794Z,1.57
2019-04-26T10:47:46.213Z,1.57
2019-04-26T10:50:34.459Z,1.30
2019-04-26T10:53:30.099Z,1.50
2019-04-26T10:56:36.180Z,1.30
2019-04-26T10:59:25.201Z,1.53
2019-04-26T11:02:14.877Z,1.40
2019-04-26T11:05:02.813Z,1.50
2019-04-26T11:07:50.253Z,1.20
2019-04-26T11:10:47.906Z,1.60
2019-04-26T11:13:28.162Z,1.33
2019-04-26T11:16:15.900Z,1.50
2019-04-26T11:19:03.270Z,1.00
2019-04-26T11:21:51.056Z,1.03
2019-04-26T11:24:40.661Z,2.37
2019-04-26T11:27:28.533Z,2.17
2019-04-26T11:30:20.792Z,2.20
2019-04-26T11:33:07.228Z,1.40
2019-04-26T11:35:55.775Z,1.73
2019-04-26T11:38:43.284Z,1.70
2019-04-26T11:41:33.983Z,3.60
2019-04-26T11:44:23.397Z,2.00
2019-04-26T11:47:09.325Z,2.50
2019-04-26T11:49:57.093Z,2.90
2019-04-26T11:52:44.539Z,1.20
2019-04-26T11:55:31.933Z,2.33
2019-04-26T11:58:22.519Z,1.33
2019-04-26T12:01:10.486Z,1.10
2019-04-26T12:04:08.474Z,1.50
2019-04-26T12:07:03.832Z,1.00
2019-04-26T12:09:53.160Z,1.00
2019-04-26T12:12:43.118Z,1.10
2019-04-26T12:15:30.805Z,1.10
2019-04-26T12:18:18.521Z,1.70
2019-04-26T12:21:06.083Z,1.53
2019-04-26T12:23:55.578Z,1.00
2019-04-26T12:26:46.164Z,1.47
2019-04-26T12:29:32.313Z,1.30
2019-04-26T12:32:19.926Z,1.57
2019-04-26T12:35:07.802Z,1.33
2019-04-26T12:37:55.833Z,2.80
2019-04-26T12:40:46.262Z,2.33
2019-04-26T12:43:33.749Z,1.47
2019-04-26T12:46:27.098Z,2.40
2019-04-26T12:49:12.680Z,13.97
2019-04-26T12:52:00.532Z,4.03
2019-04-26T12:54:48.306Z,1.60
2019-04-26T12:57:36.554Z,2.63
2019-04-26T13:00:27.460Z,1.30
2019-04-26T13:03:20.416Z,1.30
2019-04-26T13:06:05.437Z,1.50
2019-04-26T13:08:55.984Z,1.40
2019-04-26T13:12:00.942Z,1.17
2019-04-26T13:14:56.473Z,1.17
2019-04-26T13:17:45.608Z,1.07
2019-04-26T13:20:33.105Z,1.10
2019-04-26T13:23:20.908Z,1.40
2019-04-26T13:26:08.361Z,1.50
2019-04-26T13:28:57.070Z,1.70
2019-04-26T13:31:45.553Z,1.40
2019-04-26T13:34:33.369Z,1.50
2019-04-26T13:37:22.719Z,1.40
2019-04-26T13:40:10.105Z,1.30
2019-04-26T13:42:57.708Z,1.30
2019-04-26T13:45:47.142Z,1.43
2019-04-26T13:48:54.346Z,1.10
2019-04-26T13:51:44.457Z,1.30
2019-04-26T13:54:31.966Z,1.40
2019-04-26T13:57:19.476Z,1.40
2019-04-26T14:00:11.515Z,1.43
2019-04-26T14:02:57.201Z,1.17
2019-04-26T14:05:44.872Z,1.20
2019-04-26T14:08:32.585Z,1.00
2019-04-26T14:11:27.905Z,1.30
2019-04-26T14:14:09.524Z,1.20
2019-04-26T14:16:57.267Z,1.13
2019-04-26T14:19:49.190Z,1.10
2019-04-26T14:22:37.038Z,1.00
2019-04-26T14:25:42.429Z,1.00
2019-04-26T14:28:29.891Z,0.70
2019-04-26T14:31:18.239Z,1.10
2019-04-26T14:34:07.023Z,0.90
2019-04-26T14:37:05.952Z,0.90
2019-04-26T14:39:50.761Z,0.97
2019-04-26T14:42:41.996Z,1.10
2019-04-26T14:45:24.338Z,1.10
2019-04-26T14:48:20.545Z,1.10
2019-04-26T14:51:07.945Z,1.20
2019-04-26T14:53:51.052Z,1.17
2019-04-26T14:56:51.526Z,1.10
2019-04-26T14:59:46.995Z,1.10
2019-04-26T15:02:35.249Z,1.50
2019-04-26T15:05:27.656Z,1.20
2019-04-26T15:08:15.599Z,1.47
2019-04-26T15:11:04.456Z,1.40
2019-04-26T15:13:52.384Z,1.10
2019-04-26T15:16:41.414Z,1.33
2019-04-26T15:19:29.265Z,0.80
2019-04-26T15:22:16.664Z,1.23
2019-04-26T15:25:07.720Z,1.13
2019-04-26T15:27:56.845Z,1.20
2019-04-26T15:30:46.808Z,1.10
2019-04-26T15:33:36.085Z,1.03
2019-04-26T15:36:23.890Z,1.50
2019-04-26T15:39:19.714Z,1.30
2019-04-26T15:42:16.448Z,1.83
2019-04-26T15:45:25.094Z,1.37
2019-04-26T15:48:26.984Z,1.30
2019-04-26T15:51:20.077Z,1.10
2019-04-26T15:54:06.244Z,1.40
2019-04-26T15:56:55.226Z,1.40
2019-04-26T15:59:43.149Z,1.70
2019-04-26T16:02:32.107Z,3.90
2019-04-26T16:05:19.659Z,3.93
2019-04-26T16:08:07.300Z,3.20
2019-04-26T16:10:54.913Z,3.60
2019-04-26T16:13:46.656Z,3.97
2019-04-26T16:16:34.428Z,3.67
2019-04-26T16:19:21.748Z,2.60
2019-04-26T16:22:09.132Z,1.70
2019-04-26T16:24:58.166Z,2.10
2019-04-26T16:27:46.843Z,1.67
2019-04-26T16:30:37.685Z,2.10
2019-04-26T16:33:35.856Z,2.23
2019-04-26T16:36:24.030Z,2.50
2019-04-26T16:39:13.738Z,2.20
2019-04-26T16:42:06.773Z,1.80
2019-04-26T16:44:50.826Z,1.87
2019-04-26T16:47:45.067Z,1.60
2019-04-26T16:50:31.588Z,1.77
2019-04-26T16:53:41.430Z,1.60
2019-04-26T16:56:06.368Z,3.67
2019-04-26T16:58:55.056Z,4.23
2019-04-26T17:01:46.741Z,6.30
2019-04-26T17:04:35.932Z,4.27
2019-04-26T17:07:25.615Z,2.70
2019-04-26T17:10:12.123Z,2.40
2019-04-26T17:12:59.886Z,2.10
2019-04-26T17:15:47.686Z,2.13
2019-04-26T17:18:35.264Z,2.00
2019-04-26T17:21:25.569Z,2.27
2019-04-26T17:24:17.932Z,2.20
2019-04-26T17:27:09.719Z,1.97
2019-04-26T17:29:56.340Z,2.30
2019-04-26T17:32:47.498Z,3.30
2019-04-26T17:35:36.630Z,2.33
2019-04-26T17:38:23.253Z,2.40
2019-04-26T17:41:13.545Z,2.10
2019-04-26T17:44:08.328Z,2.00
2019-04-26T17:46:56.258Z,2.20
2019-04-26T17:49:41.709Z,2.40
2019-04-26T17:52:29.744Z,2.20
2019-04-26T17:55:17.793Z,2.00
2019-04-26T17:58:12.065Z,2.70
2019-04-26T18:00:56.424Z,2.67
2019-04-26T18:03:52.277Z,2.17
2019-04-26T18:06:35.395Z,2.07
2019-04-26T18:09:39.008Z,2.20
2019-04-26T18:12:12.732Z,2.23
2019-04-26T18:15:06.149Z,2.30
2019-04-26T18:17:54.056Z,2.40
2019-04-26T18:21:02.983Z,2.50
2019-04-26T18:23:54.721Z,2.57
2019-04-26T18:26:40.992Z,2.60
2019-04-26T18:29:29.653Z,2.10
2019-04-26T18:32:18.132Z,2.20
2019-04-26T18:35:09.217Z,2.50
2019-04-26T18:37:56.852Z,5.00
2019-04-26T18:41:00.096Z,5.63
2019-04-26T18:43:34.381Z,4.83
2019-04-26T18:46:24.094Z,4.80
2019-04-26T18:56:07.680Z,3.60
2019-04-26T18:58:55.893Z,3.10
2019-04-26T19:01:43.361Z,3.80
2019-04-26T19:04:30.888Z,4.40
2019-04-26T19:07:30.999Z,4.47
2019-04-26T19:10:09.568Z,4.30
2019-04-26T19:13:00.156Z,4.13
2019-04-26T19:15:51.442Z,4.20
2019-04-26T19:18:46.513Z,4.13
2019-04-26T19:21:50.649Z,4.10
2019-04-26T19:24:38.684Z,5.23
2019-04-26T19:27:27.582Z,4.00
2019-04-26T19:30:16.325Z,4.67
2019-04-26T19:33:04.223Z,4.77
2019-04-26T19:35:51.961Z,4.70
2019-04-26T19:38:45.223Z,5.20
2019-04-26T19:41:28.851Z,5.00
2019-04-26T19:44:18.812Z,4.17
2019-04-26T19:47:13.883Z,4.90
2019-04-26T19:50:11.247Z,5.30
2019-04-26T19:53:17.763Z,5.20
2019-04-26T19:56:13.402Z,4.33
2019-04-26T19:59:00.953Z,5.57
2019-04-26T20:01:48.433Z,5.53
2019-04-26T20:04:36.193Z,4.63
2019-04-26T20:07:24.210Z,4.90
2019-04-26T20:10:13.077Z,4.73
2019-04-26T20:13:02.428Z,4.80
2019-04-26T20:15:52.738Z,4.77
2019-04-26T20:18:39.862Z,5.00
2019-04-26T20:21:27.621Z,5.07
2019-04-26T20:24:18.313Z,4.50
2019-04-26T20:27:08.957Z,4.70
2019-04-26T20:29:57.508Z,4.90
2019-04-26T20:32:46.295Z,4.47
2019-04-26T20:35:33.696Z,4.40
2019-04-26T21:57:36.238Z,4.30
2019-04-26T23:04:45.151Z,4.00
2019-04-26T23:24:25.045Z,3.80
